sensor_id;sensor_type;location;lat;lon;timestamp;P1;durP1;ratioP1;P2;durP2;ratioP2
13291;SDS011;6714;53.056;8.690;2023-01-13T00:02:07;2.97;;;1.17;;
13291;SDS011;6714;53.056;8.690;2023-01-13T00:04:49;1.07;;;1.07;;
13291;SDS011;6714;53.056;8.690;2023-01-13T00:07:31;1.17;;;1.07;;
13291;SDS011;6714;53.056;8.690;2023-01-13T00:10:13;1.20;;;1.10;;
13291;SDS011;6714;53.056;8.690;2023-01-13T00:12:57;2.10;;;1.17;;
13291;SDS011;6714;53.056;8.690;2023-01-13T00:15:39;3.90;;;1.13;;
13291;SDS011;6714;53.056;8.690;2023-01-13T00:18:23;2.77;;;1.20;;
13291;SDS011;6714;53.056;8.690;2023-01-13T00:21:06;1.67;;;1.10;;
13291;SDS011;6714;53.056;8.690;2023-01-13T00:23:49;1.10;;;1.10;;
13291;SDS011;6714;53.056;8.690;2023-01-13T00:26:31;1.07;;;0.97;;
13291;SDS011;6714;53.056;8.690;2023-01-13T00:29:14;1.17;;;1.00;;
13291;SDS011;6714;53.056;8.690;2023-01-13T00:31:57;1.13;;;1.00;;
13291;SDS011;6714;53.056;8.690;2023-01-13T00:34:40;1.70;;;1.20;;
13291;SDS011;6714;53.056;8.690;2023-01-13T00:37:23;1.93;;;1.00;;
13291;SDS011;6714;53.056;8.690;2023-01-13T00:40:06;1.00;;;1.00;;
13291;SDS011;6714;53.056;8.690;2023-01-13T00:42:49;1.03;;;0.93;;
13291;SDS011;6714;53.056;8.690;2023-01-13T00:45:49;2.63;;;1.10;;
13291;SDS011;6714;53.056;8.690;2023-01-13T00:48:31;1.97;;;1.13;;
13291;SDS011;6714;53.056;8.690;2023-01-13T00:51:16;1.17;;;1.00;;
13291;SDS011;6714;53.056;8.690;2023-01-13T00:53:58;2.07;;;1.00;;
13291;SDS011;6714;53.056;8.690;2023-01-13T00:56:41;2.73;;;1.40;;
13291;SDS011;6714;53.056;8.690;2023-01-13T00:59:23;3.50;;;1.20;;
13291;SDS011;6714;53.056;8.690;2023-01-13T01:02:05;2.53;;;1.30;;
13291;SDS011;6714;53.056;8.690;2023-01-13T01:04:48;3.83;;;1.40;;
13291;SDS011;6714;53.056;8.690;2023-01-13T01:07:32;2.77;;;1.23;;
13291;SDS011;6714;53.056;8.690;2023-01-13T01:10:14;5.10;;;1.50;;
13291;SDS011;6714;53.056;8.690;2023-01-13T01:12:57;4.00;;;1.30;;
13291;SDS011;6714;53.056;8.690;2023-01-13T01:15:39;7.03;;;1.63;;
13291;SDS011;6714;53.056;8.690;2023-01-13T01:18:22;3.13;;;1.50;;
13291;SDS011;6714;53.056;8.690;2023-01-13T01:21:04;3.87;;;1.33;;
13291;SDS011;6714;53.056;8.690;2023-01-13T01:23:48;2.90;;;1.20;;
13291;SDS011;6714;53.056;8.690;2023-01-13T01:26:30;2.97;;;1.30;;
13291;SDS011;6714;53.056;8.690;2023-01-13T01:29:13;4.60;;;1.40;;
13291;SDS011;6714;53.056;8.690;2023-01-13T01:31:55;3.07;;;1.30;;
13291;SDS011;6714;53.056;8.690;2023-01-13T01:34:38;2.40;;;1.33;;
13291;SDS011;6714;53.056;8.690;2023-01-13T01:37:20;2.43;;;1.33;;
13291;SDS011;6714;53.056;8.690;2023-01-13T01:40:04;4.63;;;1.63;;
13291;SDS011;6714;53.056;8.690;2023-01-13T01:42:46;3.10;;;1.30;;
13291;SDS011;6714;53.056;8.690;2023-01-13T01:45:46;7.07;;;1.90;;
13291;SDS011;6714;53.056;8.690;2023-01-13T01:48:32;6.47;;;2.03;;
13291;SDS011;6714;53.056;8.690;2023-01-13T01:51:15;5.47;;;1.80;;
13291;SDS011;6714;53.056;8.690;2023-01-13T01:54:00;5.13;;;2.03;;
13291;SDS011;6714;53.056;8.690;2023-01-13T01:56:45;5.47;;;1.87;;
13291;SDS011;6714;53.056;8.690;2023-01-13T01:59:28;11.87;;;2.30;;
13291;SDS011;6714;53.056;8.690;2023-01-13T02:02:12;3.93;;;1.80;;
13291;SDS011;6714;53.056;8.690;2023-01-13T02:04:56;6.37;;;2.00;;
13291;SDS011;6714;53.056;8.690;2023-01-13T02:07:40;7.13;;;1.90;;
13291;SDS011;6714;53.056;8.690;2023-01-13T02:10:24;11.00;;;2.73;;
13291;SDS011;6714;53.056;8.690;2023-01-13T02:13:09;8.77;;;2.20;;
13291;SDS011;6714;53.056;8.690;2023-01-13T02:15:54;8.20;;;2.43;;
13291;SDS011;6714;53.056;8.690;2023-01-13T02:18:42;9.20;;;2.23;;
13291;SDS011;6714;53.056;8.690;2023-01-13T02:24:36;11.57;;;2.83;;
13291;SDS011;6714;53.056;8.690;2023-01-13T02:27:43;5.47;;;1.90;;
13291;SDS011;6714;53.056;8.690;2023-01-13T02:30:32;9.57;;;2.50;;
13291;SDS011;6714;53.056;8.690;2023-01-13T02:33:40;9.23;;;2.50;;
13291;SDS011;6714;53.056;8.690;2023-01-13T02:36:28;6.20;;;2.50;;
13291;SDS011;6714;53.056;8.690;2023-01-13T02:39:13;7.13;;;2.30;;
13291;SDS011;6714;53.056;8.690;2023-01-13T02:41:56;6.60;;;2.20;;
13291;SDS011;6714;53.056;8.690;2023-01-13T02:45:01;8.20;;;2.30;;
13291;SDS011;6714;53.056;8.690;2023-01-13T02:47:49;10.97;;;2.87;;
13291;SDS011;6714;53.056;8.690;2023-01-13T02:50:36;9.10;;;2.43;;
13291;SDS011;6714;53.056;8.690;2023-01-13T02:53:20;5.50;;;1.90;;
13291;SDS011;6714;53.056;8.690;2023-01-13T02:56:04;15.90;;;2.97;;
13291;SDS011;6714;53.056;8.690;2023-01-13T02:58:49;9.27;;;2.37;;
13291;SDS011;6714;53.056;8.690;2023-01-13T03:01:31;9.43;;;2.93;;
13291;SDS011;6714;53.056;8.690;2023-01-13T03:07:15;7.60;;;2.60;;
13291;SDS011;6714;53.056;8.690;2023-01-13T03:10:01;12.13;;;2.70;;
13291;SDS011;6714;53.056;8.690;2023-01-13T03:12:48;9.70;;;2.80;;
13291;SDS011;6714;53.056;8.690;2023-01-13T03:15:34;13.63;;;3.80;;
13291;SDS011;6714;53.056;8.690;2023-01-13T03:18:23;7.23;;;2.70;;
13291;SDS011;6714;53.056;8.690;2023-01-13T03:21:10;8.83;;;2.60;;
13291;SDS011;6714;53.056;8.690;2023-01-13T03:23:58;10.73;;;2.77;;
13291;SDS011;6714;53.056;8.690;2023-01-13T03:26:43;9.07;;;2.47;;
13291;SDS011;6714;53.056;8.690;2023-01-13T03:29:29;8.80;;;2.80;;
13291;SDS011;6714;53.056;8.690;2023-01-13T03:32:16;9.87;;;2.87;;
13291;SDS011;6714;53.056;8.690;2023-01-13T03:35:02;13.70;;;3.40;;
13291;SDS011;6714;53.056;8.690;2023-01-13T03:37:46;9.73;;;2.83;;
13291;SDS011;6714;53.056;8.690;2023-01-13T03:40:33;6.33;;;2.40;;
13291;SDS011;6714;53.056;8.690;2023-01-13T03:43:17;8.30;;;2.60;;
13291;SDS011;6714;53.056;8.690;2023-01-13T03:46:18;12.97;;;3.10;;
13291;SDS011;6714;53.056;8.690;2023-01-13T03:49:03;10.07;;;3.60;;
13291;SDS011;6714;53.056;8.690;2023-01-13T03:51:51;8.47;;;2.60;;
13291;SDS011;6714;53.056;8.690;2023-01-13T03:54:37;10.43;;;2.90;;
13291;SDS011;6714;53.056;8.690;2023-01-13T03:57:24;9.73;;;2.93;;
13291;SDS011;6714;53.056;8.690;2023-01-13T04:00:08;7.73;;;2.63;;
13291;SDS011;6714;53.056;8.690;2023-01-13T04:02:53;11.03;;;3.13;;
13291;SDS011;6714;53.056;8.690;2023-01-13T04:05:38;9.60;;;2.80;;
13291;SDS011;6714;53.056;8.690;2023-01-13T04:08:23;10.63;;;2.70;;
13291;SDS011;6714;53.056;8.690;2023-01-13T04:11:06;9.50;;;2.77;;
13291;SDS011;6714;53.056;8.690;2023-01-13T04:13:52;9.53;;;3.23;;
13291;SDS011;6714;53.056;8.690;2023-01-13T04:16:35;18.87;;;3.80;;
13291;SDS011;6714;53.056;8.690;2023-01-13T04:19:17;10.80;;;2.90;;
13291;SDS011;6714;53.056;8.690;2023-01-13T04:21:59;11.37;;;3.10;;
13291;SDS011;6714;53.056;8.690;2023-01-13T04:24:41;11.70;;;3.40;;
13291;SDS011;6714;53.056;8.690;2023-01-13T04:27:24;11.70;;;3.07;;
13291;SDS011;6714;53.056;8.690;2023-01-13T04:30:09;12.20;;;2.97;;
13291;SDS011;6714;53.056;8.690;2023-01-13T04:32:51;6.90;;;2.40;;
13291;SDS011;6714;53.056;8.690;2023-01-13T04:35:34;13.57;;;3.50;;
13291;SDS011;6714;53.056;8.690;2023-01-13T04:38:19;11.87;;;3.27;;
13291;SDS011;6714;53.056;8.690;2023-01-13T04:41:02;12.50;;;3.77;;
13291;SDS011;6714;53.056;8.690;2023-01-13T04:43:45;10.80;;;2.63;;
13291;SDS011;6714;53.056;8.690;2023-01-13T04:46:28;12.17;;;3.23;;
13291;SDS011;6714;53.056;8.690;2023-01-13T04:49:10;7.53;;;2.60;;
13291;SDS011;6714;53.056;8.690;2023-01-13T04:51:53;16.53;;;3.83;;
13291;SDS011;6714;53.056;8.690;2023-01-13T04:54:35;9.40;;;3.30;;
13291;SDS011;6714;53.056;8.690;2023-01-13T04:57:17;11.40;;;3.10;;
13291;SDS011;6714;53.056;8.690;2023-01-13T05:00:00;9.20;;;2.80;;
13291;SDS011;6714;53.056;8.690;2023-01-13T05:02:44;11.60;;;2.90;;
13291;SDS011;6714;53.056;8.690;2023-01-13T05:05:27;9.57;;;2.90;;
13291;SDS011;6714;53.056;8.690;2023-01-13T05:08:10;11.33;;;3.20;;
13291;SDS011;6714;53.056;8.690;2023-01-13T05:10:52;10.80;;;3.33;;
13291;SDS011;6714;53.056;8.690;2023-01-13T05:13:34;13.10;;;3.53;;
13291;SDS011;6714;53.056;8.690;2023-01-13T05:16:35;11.67;;;3.27;;
13291;SDS011;6714;53.056;8.690;2023-01-13T05:19:36;10.03;;;3.37;;
13291;SDS011;6714;53.056;8.690;2023-01-13T05:22:19;13.20;;;3.30;;
13291;SDS011;6714;53.056;8.690;2023-01-13T05:25:19;11.50;;;3.70;;
13291;SDS011;6714;53.056;8.690;2023-01-13T05:28:04;16.40;;;4.10;;
13291;SDS011;6714;53.056;8.690;2023-01-13T05:30:46;10.47;;;3.40;;
13291;SDS011;6714;53.056;8.690;2023-01-13T05:33:30;16.93;;;4.37;;
13291;SDS011;6714;53.056;8.690;2023-01-13T05:36:13;13.60;;;3.43;;
13291;SDS011;6714;53.056;8.690;2023-01-13T05:38:55;18.97;;;5.33;;
13291;SDS011;6714;53.056;8.690;2023-01-13T05:41:38;12.20;;;3.37;;
13291;SDS011;6714;53.056;8.690;2023-01-13T05:44:52;9.87;;;3.43;;
13291;SDS011;6714;53.056;8.690;2023-01-13T05:47:36;10.13;;;3.47;;
13291;SDS011;6714;53.056;8.690;2023-01-13T05:50:18;14.73;;;3.80;;
13291;SDS011;6714;53.056;8.690;2023-01-13T05:53:02;13.70;;;4.00;;
13291;SDS011;6714;53.056;8.690;2023-01-13T05:55:44;12.17;;;3.33;;
13291;SDS011;6714;53.056;8.690;2023-01-13T05:58:27;10.47;;;3.07;;
13291;SDS011;6714;53.056;8.690;2023-01-13T06:01:09;10.40;;;3.43;;
13291;SDS011;6714;53.056;8.690;2023-01-13T06:03:51;9.37;;;3.23;;
13291;SDS011;6714;53.056;8.690;2023-01-13T06:06:34;17.00;;;4.00;;
13291;SDS011;6714;53.056;8.690;2023-01-13T06:09:18;10.80;;;3.70;;
13291;SDS011;6714;53.056;8.690;2023-01-13T06:12:01;18.00;;;4.40;;
13291;SDS011;6714;53.056;8.690;2023-01-13T06:14:44;14.10;;;3.70;;
13291;SDS011;6714;53.056;8.690;2023-01-13T06:17:26;15.23;;;3.80;;
13291;SDS011;6714;53.056;8.690;2023-01-13T06:20:09;12.93;;;3.40;;
13291;SDS011;6714;53.056;8.690;2023-01-13T06:22:51;12.93;;;3.60;;
13291;SDS011;6714;53.056;8.690;2023-01-13T06:25:37;14.47;;;3.67;;
13291;SDS011;6714;53.056;8.690;2023-01-13T06:28:20;15.97;;;3.83;;
13291;SDS011;6714;53.056;8.690;2023-01-13T06:31:04;8.63;;;3.27;;
13291;SDS011;6714;53.056;8.690;2023-01-13T06:33:47;8.30;;;3.17;;
13291;SDS011;6714;53.056;8.690;2023-01-13T06:36:31;15.63;;;3.73;;
13291;SDS011;6714;53.056;8.690;2023-01-13T06:39:17;15.93;;;4.00;;
13291;SDS011;6714;53.056;8.690;2023-01-13T06:42:02;14.13;;;3.80;;
13291;SDS011;6714;53.056;8.690;2023-01-13T06:45:02;8.97;;;3.20;;
13291;SDS011;6714;53.056;8.690;2023-01-13T06:47:45;17.33;;;4.00;;
13291;SDS011;6714;53.056;8.690;2023-01-13T06:50:28;13.67;;;4.40;;
13291;SDS011;6714;53.056;8.690;2023-01-13T06:53:11;20.03;;;4.47;;
13291;SDS011;6714;53.056;8.690;2023-01-13T06:55:53;14.90;;;4.07;;
13291;SDS011;6714;53.056;8.690;2023-01-13T06:58:39;11.73;;;3.50;;
13291;SDS011;6714;53.056;8.690;2023-01-13T07:01:21;15.37;;;4.17;;
13291;SDS011;6714;53.056;8.690;2023-01-13T07:04:03;10.37;;;3.60;;
13291;SDS011;6714;53.056;8.690;2023-01-13T07:06:48;14.60;;;3.97;;
13291;SDS011;6714;53.056;8.690;2023-01-13T07:09:30;8.73;;;3.20;;
13291;SDS011;6714;53.056;8.690;2023-01-13T07:12:12;13.17;;;3.63;;
13291;SDS011;6714;53.056;8.690;2023-01-13T07:14:56;14.60;;;4.10;;
13291;SDS011;6714;53.056;8.690;2023-01-13T07:17:57;13.17;;;3.33;;
13291;SDS011;6714;53.056;8.690;2023-01-13T07:20:40;11.00;;;3.37;;
13291;SDS011;6714;53.056;8.690;2023-01-13T07:23:22;15.23;;;3.90;;
13291;SDS011;6714;53.056;8.690;2023-01-13T07:26:05;14.27;;;4.23;;
13291;SDS011;6714;53.056;8.690;2023-01-13T07:28:48;13.17;;;3.67;;
13291;SDS011;6714;53.056;8.690;2023-01-13T07:31:32;9.50;;;3.37;;
13291;SDS011;6714;53.056;8.690;2023-01-13T07:34:14;15.33;;;3.43;;
13291;SDS011;6714;53.056;8.690;2023-01-13T07:36:57;14.97;;;3.93;;
13291;SDS011;6714;53.056;8.690;2023-01-13T07:39:39;14.73;;;3.83;;
13291;SDS011;6714;53.056;8.690;2023-01-13T07:42:21;9.60;;;2.90;;
13291;SDS011;6714;53.056;8.690;2023-01-13T07:45:21;9.60;;;3.20;;
13291;SDS011;6714;53.056;8.690;2023-01-13T07:48:05;12.23;;;3.37;;
13291;SDS011;6714;53.056;8.690;2023-01-13T07:50:47;13.37;;;3.40;;
13291;SDS011;6714;53.056;8.690;2023-01-13T07:53:30;14.87;;;3.30;;
13291;SDS011;6714;53.056;8.690;2023-01-13T07:56:12;13.80;;;3.30;;
13291;SDS011;6714;53.056;8.690;2023-01-13T07:58:54;9.77;;;3.20;;
13291;SDS011;6714;53.056;8.690;2023-01-13T08:01:37;12.73;;;3.53;;
13291;SDS011;6714;53.056;8.690;2023-01-13T08:04:21;10.43;;;3.20;;
13291;SDS011;6714;53.056;8.690;2023-01-13T08:07:03;11.90;;;3.47;;
13291;SDS011;6714;53.056;8.690;2023-01-13T08:09:46;8.80;;;3.23;;
13291;SDS011;6714;53.056;8.690;2023-01-13T08:12:29;8.10;;;2.67;;
13291;SDS011;6714;53.056;8.690;2023-01-13T08:15:30;11.97;;;3.00;;
13291;SDS011;6714;53.056;8.690;2023-01-13T08:18:13;9.10;;;2.40;;
13291;SDS011;6714;53.056;8.690;2023-01-13T08:21:00;9.20;;;2.53;;
13291;SDS011;6714;53.056;8.690;2023-01-13T08:23:43;7.70;;;2.67;;
13291;SDS011;6714;53.056;8.690;2023-01-13T08:26:25;9.73;;;2.70;;
13291;SDS011;6714;53.056;8.690;2023-01-13T08:29:10;10.73;;;2.60;;
13291;SDS011;6714;53.056;8.690;2023-01-13T08:31:52;6.27;;;2.33;;
13291;SDS011;6714;53.056;8.690;2023-01-13T08:34:35;8.97;;;2.97;;
13291;SDS011;6714;53.056;8.690;2023-01-13T08:37:18;7.33;;;2.63;;
13291;SDS011;6714;53.056;8.690;2023-01-13T08:40:00;7.93;;;2.50;;
13291;SDS011;6714;53.056;8.690;2023-01-13T08:42:43;8.83;;;2.37;;
13291;SDS011;6714;53.056;8.690;2023-01-13T08:45:25;6.47;;;2.40;;
13291;SDS011;6714;53.056;8.690;2023-01-13T08:48:07;8.53;;;2.63;;
13291;SDS011;6714;53.056;8.690;2023-01-13T08:50:49;8.07;;;2.70;;
13291;SDS011;6714;53.056;8.690;2023-01-13T08:53:33;9.27;;;3.07;;
13291;SDS011;6714;53.056;8.690;2023-01-13T08:56:15;6.47;;;2.30;;
13291;SDS011;6714;53.056;8.690;2023-01-13T08:58:58;6.53;;;2.50;;
13291;SDS011;6714;53.056;8.690;2023-01-13T09:01:42;4.10;;;2.20;;
13291;SDS011;6714;53.056;8.690;2023-01-13T09:04:27;8.33;;;2.40;;
13291;SDS011;6714;53.056;8.690;2023-01-13T09:07:10;7.07;;;2.03;;
13291;SDS011;6714;53.056;8.690;2023-01-13T09:09:53;7.67;;;2.90;;
13291;SDS011;6714;53.056;8.690;2023-01-13T09:12:36;9.93;;;2.33;;
13291;SDS011;6714;53.056;8.690;2023-01-13T09:15:35;7.57;;;2.23;;
13291;SDS011;6714;53.056;8.690;2023-01-13T09:18:17;8.87;;;2.73;;
13291;SDS011;6714;53.056;8.690;2023-01-13T09:20:59;9.60;;;2.53;;
13291;SDS011;6714;53.056;8.690;2023-01-13T09:23:44;6.33;;;2.60;;
13291;SDS011;6714;53.056;8.690;2023-01-13T09:26:27;7.10;;;2.37;;
13291;SDS011;6714;53.056;8.690;2023-01-13T09:29:09;6.40;;;2.27;;
13291;SDS011;6714;53.056;8.690;2023-01-13T09:31:52;10.10;;;2.50;;
13291;SDS011;6714;53.056;8.690;2023-01-13T09:34:35;5.30;;;1.80;;
13291;SDS011;6714;53.056;8.690;2023-01-13T09:37:35;5.47;;;2.23;;
13291;SDS011;6714;53.056;8.690;2023-01-13T09:40:18;9.27;;;2.33;;
13291;SDS011;6714;53.056;8.690;2023-01-13T09:43:04;9.20;;;2.60;;
13291;SDS011;6714;53.056;8.690;2023-01-13T09:46:06;10.20;;;2.80;;
13291;SDS011;6714;53.056;8.690;2023-01-13T09:49:12;10.83;;;2.80;;
13291;SDS011;6714;53.056;8.690;2023-01-13T09:52:01;6.90;;;2.40;;
13291;SDS011;6714;53.056;8.690;2023-01-13T09:54:45;8.13;;;2.30;;
13291;SDS011;6714;53.056;8.690;2023-01-13T09:57:31;8.73;;;2.23;;
13291;SDS011;6714;53.056;8.690;2023-01-13T10:00:18;4.27;;;2.10;;
13291;SDS011;6714;53.056;8.690;2023-01-13T10:03:06;9.10;;;2.73;;
13291;SDS011;6714;53.056;8.690;2023-01-13T10:05:55;6.30;;;2.20;;
13291;SDS011;6714;53.056;8.690;2023-01-13T10:08:40;7.37;;;2.37;;
13291;SDS011;6714;53.056;8.690;2023-01-13T10:11:23;8.43;;;2.40;;
13291;SDS011;6714;53.056;8.690;2023-01-13T10:14:23;10.40;;;2.80;;
13291;SDS011;6714;53.056;8.690;2023-01-13T10:17:10;8.93;;;2.60;;
13291;SDS011;6714;53.056;8.690;2023-01-13T10:19:55;10.80;;;3.00;;
13291;SDS011;6714;53.056;8.690;2023-01-13T10:22:42;8.13;;;2.50;;
13291;SDS011;6714;53.056;8.690;2023-01-13T10:25:26;9.93;;;2.90;;
13291;SDS011;6714;53.056;8.690;2023-01-13T10:28:10;10.33;;;2.40;;
13291;SDS011;6714;53.056;8.690;2023-01-13T10:30:52;9.87;;;2.30;;
13291;SDS011;6714;53.056;8.690;2023-01-13T10:33:36;10.37;;;2.93;;
13291;SDS011;6714;53.056;8.690;2023-01-13T10:36:18;11.83;;;2.97;;
13291;SDS011;6714;53.056;8.690;2023-01-13T10:39:05;6.87;;;2.83;;
13291;SDS011;6714;53.056;8.690;2023-01-13T10:41:48;7.17;;;2.53;;
13291;SDS011;6714;53.056;8.690;2023-01-13T10:44:30;6.83;;;2.50;;
13291;SDS011;6714;53.056;8.690;2023-01-13T10:47:17;7.73;;;2.40;;
13291;SDS011;6714;53.056;8.690;2023-01-13T10:50:18;7.67;;;2.80;;
13291;SDS011;6714;53.056;8.690;2023-01-13T10:53:02;10.50;;;2.43;;
13291;SDS011;6714;53.056;8.690;2023-01-13T10:55:56;9.67;;;2.60;;
13291;SDS011;6714;53.056;8.690;2023-01-13T10:58:39;7.53;;;2.30;;
13291;SDS011;6714;53.056;8.690;2023-01-13T11:01:22;5.53;;;2.33;;
13291;SDS011;6714;53.056;8.690;2023-01-13T11:04:14;4.97;;;2.53;;
13291;SDS011;6714;53.056;8.690;2023-01-13T11:07:04;8.37;;;2.57;;
13291;SDS011;6714;53.056;8.690;2023-01-13T11:09:47;6.93;;;2.40;;
13291;SDS011;6714;53.056;8.690;2023-01-13T11:12:30;6.33;;;2.50;;
13291;SDS011;6714;53.056;8.690;2023-01-13T11:15:14;6.20;;;2.63;;
13291;SDS011;6714;53.056;8.690;2023-01-13T11:17:58;4.47;;;2.17;;
13291;SDS011;6714;53.056;8.690;2023-01-13T11:20:41;8.33;;;2.63;;
13291;SDS011;6714;53.056;8.690;2023-01-13T11:23:29;8.27;;;2.90;;
13291;SDS011;6714;53.056;8.690;2023-01-13T11:26:13;7.50;;;2.47;;
13291;SDS011;6714;53.056;8.690;2023-01-13T11:28:58;6.07;;;2.30;;
13291;SDS011;6714;53.056;8.690;2023-01-13T11:31:41;11.03;;;2.57;;
13291;SDS011;6714;53.056;8.690;2023-01-13T11:34:27;6.97;;;2.47;;
13291;SDS011;6714;53.056;8.690;2023-01-13T11:37:13;7.50;;;2.70;;
13291;SDS011;6714;53.056;8.690;2023-01-13T11:40:02;7.70;;;2.87;;
13291;SDS011;6714;53.056;8.690;2023-01-13T11:42:48;9.03;;;2.63;;
13291;SDS011;6714;53.056;8.690;2023-01-13T11:45:35;7.77;;;2.70;;
13291;SDS011;6714;53.056;8.690;2023-01-13T11:48:18;5.80;;;2.50;;
13291;SDS011;6714;53.056;8.690;2023-01-13T11:51:03;6.73;;;2.47;;
13291;SDS011;6714;53.056;8.690;2023-01-13T11:53:52;10.23;;;3.00;;
13291;SDS011;6714;53.056;8.690;2023-01-13T11:56:41;6.67;;;2.50;;
13291;SDS011;6714;53.056;8.690;2023-01-13T11:59:37;7.27;;;2.50;;
13291;SDS011;6714;53.056;8.690;2023-01-13T12:02:30;8.67;;;2.90;;
13291;SDS011;6714;53.056;8.690;2023-01-13T12:05:18;10.03;;;2.40;;
13291;SDS011;6714;53.056;8.690;2023-01-13T12:08:08;7.13;;;2.30;;
13291;SDS011;6714;53.056;8.690;2023-01-13T12:10:57;8.90;;;2.30;;
13291;SDS011;6714;53.056;8.690;2023-01-13T12:13:45;5.60;;;2.03;;
13291;SDS011;6714;53.056;8.690;2023-01-13T12:16:31;6.13;;;2.43;;
13291;SDS011;6714;53.056;8.690;2023-01-13T12:19:23;8.97;;;2.20;;
13291;SDS011;6714;53.056;8.690;2023-01-13T12:22:08;8.67;;;2.40;;
13291;SDS011;6714;53.056;8.690;2023-01-13T12:24:52;8.37;;;2.47;;
13291;SDS011;6714;53.056;8.690;2023-01-13T12:27:38;8.03;;;2.60;;
13291;SDS011;6714;53.056;8.690;2023-01-13T12:30:24;6.70;;;2.50;;
13291;SDS011;6714;53.056;8.690;2023-01-13T12:33:11;7.67;;;2.53;;
13291;SDS011;6714;53.056;8.690;2023-01-13T12:35:57;7.23;;;2.37;;
13291;SDS011;6714;53.056;8.690;2023-01-13T12:38:41;6.17;;;2.40;;
13291;SDS011;6714;53.056;8.690;2023-01-13T12:41:29;9.60;;;2.60;;
13291;SDS011;6714;53.056;8.690;2023-01-13T12:44:14;7.87;;;2.63;;
13291;SDS011;6714;53.056;8.690;2023-01-13T12:47:00;5.07;;;2.00;;
13291;SDS011;6714;53.056;8.690;2023-01-13T12:49:43;9.37;;;2.80;;
13291;SDS011;6714;53.056;8.690;2023-01-13T12:52:26;6.93;;;2.37;;
13291;SDS011;6714;53.056;8.690;2023-01-13T12:55:15;4.90;;;2.40;;
13291;SDS011;6714;53.056;8.690;2023-01-13T12:57:58;9.20;;;2.40;;
13291;SDS011;6714;53.056;8.690;2023-01-13T13:00:54;10.97;;;3.00;;
13291;SDS011;6714;53.056;8.690;2023-01-13T13:03:39;9.43;;;2.80;;
13291;SDS011;6714;53.056;8.690;2023-01-13T13:06:22;6.50;;;2.23;;
13291;SDS011;6714;53.056;8.690;2023-01-13T13:09:04;7.40;;;2.20;;
13291;SDS011;6714;53.056;8.690;2023-01-13T13:11:48;9.27;;;2.70;;
13291;SDS011;6714;53.056;8.690;2023-01-13T13:14:58;8.77;;;2.50;;
13291;SDS011;6714;53.056;8.690;2023-01-13T13:20:53;7.70;;;2.37;;
13291;SDS011;6714;53.056;8.690;2023-01-13T13:23:56;5.90;;;2.03;;
13291;SDS011;6714;53.056;8.690;2023-01-13T13:26:43;7.93;;;2.30;;
13291;SDS011;6714;53.056;8.690;2023-01-13T13:29:39;8.67;;;2.47;;
13291;SDS011;6714;53.056;8.690;2023-01-13T13:32:33;6.23;;;2.23;;
13291;SDS011;6714;53.056;8.690;2023-01-13T13:35:22;7.63;;;2.20;;
13291;SDS011;6714;53.056;8.690;2023-01-13T13:38:15;6.03;;;2.40;;
13291;SDS011;6714;53.056;8.690;2023-01-13T13:41:18;10.40;;;2.63;;
13291;SDS011;6714;53.056;8.690;2023-01-13T13:44:19;6.93;;;1.80;;
13291;SDS011;6714;53.056;8.690;2023-01-13T13:47:19;8.13;;;2.30;;
13291;SDS011;6714;53.056;8.690;2023-01-13T13:50:05;2.63;;;1.63;;
13291;SDS011;6714;53.056;8.690;2023-01-13T13:52:48;8.10;;;2.33;;
13291;SDS011;6714;53.056;8.690;2023-01-13T13:55:34;8.07;;;2.30;;
13291;SDS011;6714;53.056;8.690;2023-01-13T13:58:17;5.80;;;1.90;;
13291;SDS011;6714;53.056;8.690;2023-01-13T14:01:00;9.03;;;2.60;;
13291;SDS011;6714;53.056;8.690;2023-01-13T14:03:42;7.57;;;1.93;;
13291;SDS011;6714;53.056;8.690;2023-01-13T14:06:24;7.20;;;2.10;;
13291;SDS011;6714;53.056;8.690;2023-01-13T14:09:13;6.50;;;2.13;;
13291;SDS011;6714;53.056;8.690;2023-01-13T14:11:58;7.30;;;2.23;;
13291;SDS011;6714;53.056;8.690;2023-01-13T14:14:41;5.70;;;2.20;;
13291;SDS011;6714;53.056;8.690;2023-01-13T14:17:25;6.50;;;2.30;;
13291;SDS011;6714;53.056;8.690;2023-01-13T14:20:12;8.83;;;2.47;;
13291;SDS011;6714;53.056;8.690;2023-01-13T14:22:56;6.23;;;2.17;;
13291;SDS011;6714;53.056;8.690;2023-01-13T14:25:46;7.90;;;2.20;;
13291;SDS011;6714;53.056;8.690;2023-01-13T14:28:33;8.07;;;2.27;;
13291;SDS011;6714;53.056;8.690;2023-01-13T14:31:18;5.93;;;2.47;;
13291;SDS011;6714;53.056;8.690;2023-01-13T14:34:00;4.30;;;1.90;;
13291;SDS011;6714;53.056;8.690;2023-01-13T14:36:43;5.30;;;2.00;;
13291;SDS011;6714;53.056;8.690;2023-01-13T14:39:33;6.70;;;2.30;;
13291;SDS011;6714;53.056;8.690;2023-01-13T14:42:16;5.63;;;2.43;;
13291;SDS011;6714;53.056;8.690;2023-01-13T14:44:59;8.67;;;2.67;;
13291;SDS011;6714;53.056;8.690;2023-01-13T14:47:42;4.27;;;2.00;;
13291;SDS011;6714;53.056;8.690;2023-01-13T14:50:31;5.77;;;2.27;;
13291;SDS011;6714;53.056;8.690;2023-01-13T14:53:28;4.53;;;2.10;;
13291;SDS011;6714;53.056;8.690;2023-01-13T15:05:32;4.27;;;1.90;;
13291;SDS011;6714;53.056;8.690;2023-01-13T15:08:24;6.27;;;1.90;;
13291;SDS011;6714;53.056;8.690;2023-01-13T15:11:07;5.20;;;1.70;;
13291;SDS011;6714;53.056;8.690;2023-01-13T15:14:00;6.47;;;2.17;;
13291;SDS011;6714;53.056;8.690;2023-01-13T15:16:42;7.10;;;1.90;;
13291;SDS011;6714;53.056;8.690;2023-01-13T15:19:24;4.37;;;2.00;;
13291;SDS011;6714;53.056;8.690;2023-01-13T15:22:08;5.97;;;1.93;;
13291;SDS011;6714;53.056;8.690;2023-01-13T15:24:50;5.57;;;1.60;;
13291;SDS011;6714;53.056;8.690;2023-01-13T15:27:35;6.07;;;2.10;;
13291;SDS011;6714;53.056;8.690;2023-01-13T15:30:18;6.50;;;1.87;;
13291;SDS011;6714;53.056;8.690;2023-01-13T15:33:00;5.00;;;1.90;;
13291;SDS011;6714;53.056;8.690;2023-01-13T15:35:43;5.23;;;2.07;;
13291;SDS011;6714;53.056;8.690;2023-01-13T15:38:27;5.00;;;1.77;;
13291;SDS011;6714;53.056;8.690;2023-01-13T15:41:10;7.27;;;2.23;;
13291;SDS011;6714;53.056;8.690;2023-01-13T15:43:52;6.83;;;2.07;;
13291;SDS011;6714;53.056;8.690;2023-01-13T15:46:52;5.67;;;2.00;;
13291;SDS011;6714;53.056;8.690;2023-01-13T15:49:35;5.33;;;1.80;;
13291;SDS011;6714;53.056;8.690;2023-01-13T15:52:18;4.00;;;1.70;;
13291;SDS011;6714;53.056;8.690;2023-01-13T15:55:02;2.93;;;1.63;;
13291;SDS011;6714;53.056;8.690;2023-01-13T15:57:45;5.77;;;1.97;;
13291;SDS011;6714;53.056;8.690;2023-01-13T16:00:29;4.20;;;1.73;;
13291;SDS011;6714;53.056;8.690;2023-01-13T16:03:11;6.17;;;1.50;;
13291;SDS011;6714;53.056;8.690;2023-01-13T16:05:53;5.97;;;1.77;;
13291;SDS011;6714;53.056;8.690;2023-01-13T16:08:36;6.67;;;1.87;;
13291;SDS011;6714;53.056;8.690;2023-01-13T16:11:20;5.07;;;1.93;;
13291;SDS011;6714;53.056;8.690;2023-01-13T16:14:02;7.17;;;2.50;;
13291;SDS011;6714;53.056;8.690;2023-01-13T16:16:44;7.77;;;1.90;;
13291;SDS011;6714;53.056;8.690;2023-01-13T16:19:26;6.00;;;2.27;;
13291;SDS011;6714;53.056;8.690;2023-01-13T16:22:09;5.33;;;1.77;;
13291;SDS011;6714;53.056;8.690;2023-01-13T16:24:51;6.40;;;2.20;;
13291;SDS011;6714;53.056;8.690;2023-01-13T16:27:35;6.00;;;2.10;;
13291;SDS011;6714;53.056;8.690;2023-01-13T16:30:19;5.73;;;1.80;;
13291;SDS011;6714;53.056;8.690;2023-01-13T16:33:02;5.90;;;1.97;;
13291;SDS011;6714;53.056;8.690;2023-01-13T16:35:45;5.10;;;1.97;;
13291;SDS011;6714;53.056;8.690;2023-01-13T16:38:27;7.37;;;1.80;;
13291;SDS011;6714;53.056;8.690;2023-01-13T16:41:10;5.50;;;2.17;;
13291;SDS011;6714;53.056;8.690;2023-01-13T16:43:54;5.10;;;2.10;;
13291;SDS011;6714;53.056;8.690;2023-01-13T16:46:37;7.53;;;2.30;;
13291;SDS011;6714;53.056;8.690;2023-01-13T16:49:20;4.90;;;2.00;;
13291;SDS011;6714;53.056;8.690;2023-01-13T16:52:03;5.70;;;2.13;;
13291;SDS011;6714;53.056;8.690;2023-01-13T16:54:45;10.27;;;2.00;;
13291;SDS011;6714;53.056;8.690;2023-01-13T16:57:27;4.27;;;1.77;;
13291;SDS011;6714;53.056;8.690;2023-01-13T17:00:12;7.77;;;2.23;;
13291;SDS011;6714;53.056;8.690;2023-01-13T17:02:54;5.60;;;2.10;;
13291;SDS011;6714;53.056;8.690;2023-01-13T17:05:42;5.97;;;1.80;;
13291;SDS011;6714;53.056;8.690;2023-01-13T17:08:25;5.73;;;1.87;;